createdAt,value
2022-08-25T05:01:20.535Z,19.84
2022-08-25T05:03:59.453Z,19.87
2022-08-25T05:06:29.851Z,19.92
2022-08-25T05:09:00.148Z,20.01
2022-08-25T05:11:31.884Z,20.18
2022-08-25T05:17:20.403Z,20.46
2022-08-25T05:19:54.686Z,20.74
2022-08-25T05:22:26.650Z,21.01
2022-08-25T05:24:54.404Z,21.17
2022-08-25T05:27:24.012Z,21.31
2022-08-25T05:29:51.680Z,21.40
2022-08-25T05:32:20.484Z,21.47
2022-08-25T05:34:48.434Z,21.58
2022-08-25T05:37:16.205Z,21.67
2022-08-25T05:39:49.741Z,21.75
2022-08-25T05:42:17.579Z,21.79
2022-08-25T05:44:47.387Z,21.77
2022-08-25T05:47:15.459Z,21.84
2022-08-25T05:49:43.628Z,21.96
2022-08-25T05:52:16.454Z,22.06
2022-08-25T05:54:46.951Z,22.20
2022-08-25T05:57:14.701Z,22.32
2022-08-25T05:59:42.279Z,22.47
2022-08-25T06:02:28.879Z,22.54
2022-08-25T06:04:58.684Z,22.57
2022-08-25T06:07:27.783Z,22.54
2022-08-25T06:09:57.819Z,22.43
2022-08-25T06:12:32.421Z,22.40
2022-08-25T06:15:04.753Z,22.38
2022-08-25T06:17:40.553Z,22.44
2022-08-25T06:20:14.614Z,22.60
2022-08-25T06:22:43.663Z,22.78
2022-08-25T06:25:15.956Z,22.85
2022-08-25T06:27:43.608Z,22.73
2022-08-25T06:30:24.061Z,22.58
2022-08-25T06:32:54.691Z,22.48
2022-08-25T06:35:22.866Z,22.57
2022-08-25T06:38:24.118Z,22.54
2022-08-25T06:40:52.900Z,22.48
2022-08-25T06:43:21.647Z,22.47
2022-08-25T06:45:50.369Z,22.52
2022-08-25T06:48:18.249Z,22.63
2022-08-25T06:50:46.092Z,22.80
2022-08-25T06:53:13.654Z,22.89
2022-08-25T06:55:41.633Z,22.92
2022-08-25T06:58:10.287Z,22.82
2022-08-25T07:00:41.091Z,22.67
2022-08-25T07:03:09.950Z,22.67
2022-08-25T07:05:43.957Z,22.59
2022-08-25T07:08:11.696Z,22.59
2022-08-25T07:10:40.517Z,22.70
2022-08-25T07:13:11.444Z,22.77
2022-08-25T07:15:44.040Z,22.81
2022-08-25T07:18:15.737Z,22.82
2022-08-25T07:20:43.257Z,22.88
2022-08-25T07:23:10.813Z,22.88
2022-08-25T07:25:39.591Z,22.83
2022-08-25T07:28:09.287Z,22.88
2022-08-25T07:30:38.305Z,22.95
2022-08-25T07:33:07.182Z,23.04
2022-08-25T07:35:38.474Z,23.10
2022-08-25T07:38:10.154Z,23.15
2022-08-25T07:40:42.701Z,23.13
2022-08-25T07:43:10.954Z,23.07
2022-08-25T07:45:43.875Z,23.04
2022-08-25T07:48:20.507Z,23.00
2022-08-25T07:50:49.248Z,23.11
2022-08-25T07:53:18.176Z,23.24
2022-08-25T07:55:47.296Z,23.40
2022-08-25T07:58:15.870Z,23.59
2022-08-25T08:00:48.578Z,23.74
2022-08-25T08:03:42.169Z,23.86
2022-08-25T08:06:12.602Z,24.03
2022-08-25T08:08:45.148Z,24.12
2022-08-25T08:11:45.148Z,24.25
2022-08-25T08:14:19.370Z,24.39
2022-08-25T08:16:55.015Z,24.43
2022-08-25T08:19:24.809Z,24.35
2022-08-25T08:21:54.252Z,24.30
2022-08-25T08:24:56.075Z,24.02
2022-08-25T08:27:27.341Z,24.08
2022-08-25T08:29:56.330Z,24.16
2022-08-25T08:32:36.700Z,24.18
2022-08-25T08:35:19.601Z,24.15
2022-08-25T08:37:49.627Z,23.96
2022-08-25T08:40:23.184Z,23.81
2022-08-25T08:43:18.244Z,23.79
2022-08-25T08:45:53.708Z,23.82
2022-08-25T08:49:05.485Z,23.80
2022-08-25T08:51:51.144Z,23.85
2022-08-25T08:54:25.078Z,23.86
2022-08-25T08:57:27.043Z,23.86
2022-08-25T09:00:01.938Z,23.98
2022-08-25T09:02:51.733Z,24.07
2022-08-25T09:05:28.756Z,24.25
2022-08-25T09:08:12.148Z,24.48
2022-08-25T09:11:19.350Z,24.83
2022-08-25T09:14:09.282Z,25.19
2022-08-25T09:17:17.449Z,25.52
2022-08-25T09:20:18.859Z,25.72
2022-08-25T09:23:10.113Z,25.80
2022-08-25T09:25:56.724Z,25.89
2022-08-25T09:28:51.419Z,25.99
2022-08-25T09:31:35.230Z,26.00
2022-08-25T09:34:32.519Z,25.97
2022-08-25T09:37:02.940Z,25.91
2022-08-25T09:39:31.626Z,25.85
2022-08-25T09:42:00.939Z,25.92
2022-08-25T09:44:43.816Z,26.09
2022-08-25T09:47:30.115Z,26.33
2022-08-25T09:50:05.486Z,26.42
2022-08-25T09:52:41.118Z,26.54
2022-08-25T09:55:13.733Z,26.61
2022-08-25T09:57:42.924Z,26.63
2022-08-25T10:00:34.194Z,26.56
2022-08-25T10:03:22.709Z,26.65
2022-08-25T10:06:04.793Z,26.77
2022-08-25T10:08:52.848Z,26.95
2022-08-25T10:11:46.902Z,27.11
2022-08-25T10:14:46.941Z,27.32
2022-08-25T10:17:27.574Z,27.20
2022-08-25T10:20:35.167Z,27.18
2022-08-25T10:23:18.014Z,26.89
2022-08-25T10:25:59.468Z,26.78
2022-08-25T10:28:55.523Z,26.84
2022-08-25T10:32:16.742Z,26.92
2022-08-25T10:34:56.602Z,27.02
2022-08-25T10:37:38.492Z,27.03
2022-08-25T10:40:27.854Z,26.99
2022-08-25T10:43:33.737Z,26.81
2022-08-25T10:46:32.406Z,26.97
2022-08-25T10:49:42.257Z,27.23
2022-08-25T10:52:31.540Z,27.43
2022-08-25T10:55:13.427Z,27.60
2022-08-25T10:57:56.038Z,27.74
2022-08-25T11:00:38.348Z,27.73
2022-08-25T11:03:22.812Z,27.80
2022-08-25T11:06:05.219Z,27.84
2022-08-25T11:08:59.513Z,27.76
2022-08-25T11:11:52.773Z,27.63
2022-08-25T11:14:42.713Z,27.69
2022-08-25T11:17:24.427Z,27.60
2022-08-25T11:20:16.366Z,27.54
2022-08-25T11:23:14.650Z,27.57
2022-08-25T11:25:47.764Z,27.67
2022-08-25T11:28:30.653Z,27.54
2022-08-25T11:31:01.576Z,27.47
2022-08-25T11:33:31.618Z,27.50
2022-08-25T11:36:32.464Z,27.50
2022-08-25T11:39:54.019Z,27.37
2022-08-25T11:43:12.234Z,27.28
2022-08-25T11:46:27.833Z,27.30
2022-08-25T11:49:58.152Z,27.55
2022-08-25T11:52:34.599Z,27.82
2022-08-25T11:55:47.016Z,27.92
2022-08-25T11:58:50.743Z,27.95
2022-08-25T12:01:45.233Z,28.01
2022-08-25T12:04:44.517Z,28.03
2022-08-25T12:07:40.983Z,28.01
2022-08-25T12:10:12.789Z,28.06
2022-08-25T12:12:44.174Z,28.21
2022-08-25T12:15:31.717Z,28.33
2022-08-25T12:18:40.140Z,28.48
2022-08-25T12:21:31.553Z,28.49
2022-08-25T12:24:01.769Z,28.65
2022-08-25T12:26:48.374Z,28.82
2022-08-25T12:29:22.593Z,28.91
2022-08-25T12:32:35.866Z,29.01
2022-08-25T12:35:37.788Z,29.08
2022-08-25T12:38:18.962Z,29.12
2022-08-25T12:40:46.723Z,28.96
2022-08-25T12:43:37.275Z,28.86
2022-08-25T12:46:23.083Z,28.80
2022-08-25T12:49:29.589Z,28.80
2022-08-25T12:52:19.180Z,29.01
2022-08-25T12:54:59.127Z,29.19
2022-08-25T12:58:00.626Z,29.42
2022-08-25T13:01:32.973Z,29.47
2022-08-25T13:04:23.884Z,29.43
2022-08-25T13:07:46.109Z,29.29
2022-08-25T13:10:38.885Z,29.22
2022-08-25T13:14:14.828Z,29.08
2022-08-25T13:16:58.737Z,29.03
2022-08-25T13:19:34.796Z,29.02
2022-08-25T13:22:18.260Z,29.04
2022-08-25T13:24:51.772Z,29.05
2022-08-25T13:27:28.416Z,29.20
2022-08-25T13:30:03.534Z,29.30
2022-08-25T13:32:36.627Z,29.22
2022-08-25T13:35:32.515Z,29.14
2022-08-25T13:38:16.355Z,29.10
2022-08-25T13:40:44.760Z,29.11
2022-08-25T13:43:16.764Z,29.05
2022-08-25T13:45:53.352Z,28.93
2022-08-25T13:48:49.162Z,28.82
2022-08-25T13:51:31.268Z,28.79
2022-08-25T13:54:05.950Z,28.89
2022-08-25T13:56:40.954Z,28.93
2022-08-25T13:59:40.072Z,28.95
2022-08-25T14:02:15.174Z,28.98
2022-08-25T14:04:51.559Z,28.99
2022-08-25T14:07:34.228Z,29.05
2022-08-25T14:10:30.257Z,29.14
2022-08-25T14:13:32.335Z,29.30
2022-08-25T14:16:25.438Z,29.39
2022-08-25T14:19:00.395Z,29.32
2022-08-25T14:21:32.145Z,29.12
2022-08-25T14:24:04.151Z,29.01
2022-08-25T14:26:32.115Z,28.82
2022-08-25T14:29:01.129Z,28.69
2022-08-25T14:31:39.056Z,28.74
2022-08-25T14:34:22.744Z,28.83
2022-08-25T14:36:52.174Z,28.89
2022-08-25T14:39:22.603Z,28.89
2022-08-25T14:41:53.291Z,28.89
2022-08-25T14:44:23.775Z,28.89
2022-08-25T14:46:56.834Z,28.96
2022-08-25T14:49:33.682Z,28.99
2022-08-25T14:52:36.008Z,29.01
2022-08-25T14:55:04.183Z,28.92
2022-08-25T14:57:31.937Z,28.90
2022-08-25T15:00:00.515Z,28.83
2022-08-25T15:02:33.431Z,28.81
2022-08-25T15:05:28.803Z,28.79
2022-08-25T15:08:15.958Z,28.74
2022-08-25T15:10:45.232Z,28.71
2022-08-25T15:13:14.296Z,28.70
2022-08-25T15:15:52.627Z,28.72
2022-08-25T15:18:23.170Z,28.72
2022-08-25T15:20:51.458Z,28.72
2022-08-25T15:23:21.048Z,28.81
2022-08-25T15:25:52.684Z,28.89
2022-08-25T15:28:22.221Z,28.83
2022-08-25T15:30:50.855Z,28.75
2022-08-25T15:33:18.784Z,28.71
2022-08-25T15:35:46.345Z,28.64
2022-08-25T15:38:20.549Z,28.61
2022-08-25T15:40:50.372Z,28.53
2022-08-25T15:43:19.046Z,28.46
2022-08-25T15:45:51.017Z,28.38
2022-08-25T15:48:18.564Z,28.34
2022-08-25T15:50:49.010Z,28.30
2022-08-25T15:53:18.191Z,28.29
2022-08-25T15:55:46.373Z,28.30
2022-08-25T15:58:17.253Z,28.28
2022-08-25T16:00:56.336Z,28.29
2022-08-25T16:03:27.381Z,28.30
2022-08-25T16:05:57.803Z,28.29
2022-08-25T16:08:26.507Z,28.28
2022-08-25T16:10:55.483Z,28.21
2022-08-25T16:13:27.906Z,28.18
2022-08-25T16:15:58.018Z,28.15
2022-08-25T16:18:27.277Z,28.17
2022-08-25T16:20:55.661Z,28.14
2022-08-25T16:23:24.397Z,28.13
2022-08-25T16:25:52.334Z,28.10
2022-08-25T16:28:24.461Z,28.05
2022-08-25T16:30:53.689Z,28.09
2022-08-25T16:33:23.593Z,28.11
2022-08-25T16:35:51.461Z,28.11
2022-08-25T16:38:22.208Z,28.14
2022-08-25T16:40:50.989Z,28.15
2022-08-25T16:43:19.385Z,28.15
2022-08-25T16:45:47.027Z,28.12
2022-08-25T16:48:20.636Z,28.00
2022-08-25T16:50:50.350Z,27.87
2022-08-25T16:53:36.741Z,27.79
2022-08-25T16:56:08.551Z,27.73
2022-08-25T16:58:38.931Z,27.69
2022-08-25T17:01:12.702Z,27.65
2022-08-25T17:03:44.310Z,27.57
2022-08-25T17:06:13.917Z,27.48
2022-08-25T17:08:41.768Z,27.42
2022-08-25T17:11:28.068Z,27.37
2022-08-25T17:13:59.563Z,27.31
2022-08-25T17:16:31.912Z,27.22
2022-08-25T17:19:08.744Z,27.14
2022-08-25T17:21:45.293Z,27.09
2022-08-25T17:24:14.230Z,27.01
2022-08-25T17:26:47.608Z,26.95
2022-08-25T17:29:19.389Z,26.87
2022-08-25T17:31:51.252Z,26.81
2022-08-25T17:34:23.068Z,26.72
2022-08-25T17:36:53.482Z,26.59
2022-08-25T17:39:22.738Z,26.46
2022-08-25T17:41:54.493Z,26.33
2022-08-25T17:44:22.354Z,26.21
2022-08-25T17:46:52.987Z,26.15
2022-08-25T17:49:22.391Z,26.06
2022-08-25T17:51:54.367Z,25.95
2022-08-25T17:54:22.439Z,25.86
2022-08-25T17:56:49.993Z,25.77
2022-08-25T17:59:18.887Z,25.70
2022-08-25T18:01:55.301Z,25.65
2022-08-25T18:04:23.638Z,25.59
2022-08-25T18:06:55.106Z,25.51
2022-08-25T18:09:22.750Z,25.43
2022-08-25T18:11:52.559Z,25.34
2022-08-25T18:14:25.540Z,25.25
2022-08-25T18:16:54.107Z,25.13
2022-08-25T18:19:21.889Z,25.03
2022-08-25T18:21:56.511Z,24.94
2022-08-25T18:24:24.099Z,24.86
2022-08-25T18:26:52.045Z,24.79
2022-08-25T18:29:21.134Z,24.71
2022-08-25T18:31:53.611Z,24.61
2022-08-25T18:34:25.284Z,24.49
2022-08-25T18:36:53.039Z,24.35
2022-08-25T18:39:42.926Z,24.32
2022-08-25T18:42:11.818Z,24.26
2022-08-25T18:44:41.941Z,24.21
2022-08-25T18:47:14.414Z,24.10
2022-08-25T18:49:42.679Z,24.02
2022-08-25T18:52:10.236Z,23.97
2022-08-25T18:54:39.706Z,23.97
2022-08-25T18:57:08.167Z,23.92
2022-08-25T18:59:37.132Z,23.91
2022-08-25T19:02:06.951Z,23.95
2022-08-25T19:04:40.938Z,23.95
2022-08-25T19:07:11.966Z,23.91
2022-08-25T19:09:39.755Z,23.92
2022-08-25T19:12:11.815Z,23.95
2022-08-25T19:14:51.468Z,23.98
2022-08-25T19:17:19.725Z,24.03
2022-08-25T19:19:52.528Z,24.06
2022-08-25T19:22:40.593Z,24.07
2022-08-25T19:25:11.018Z,24.07
2022-08-25T19:27:40.419Z,24.06
2022-08-25T19:30:12.550Z,23.98
2022-08-25T19:32:43.735Z,23.85
2022-08-25T19:35:37.882Z,23.77
2022-08-25T19:38:33.339Z,23.68
2022-08-25T19:41:13.922Z,23.47
2022-08-25T19:43:56.513Z,23.42
2022-08-25T19:46:35.368Z,23.40
2022-08-25T19:49:27.039Z,23.25
2022-08-25T19:51:57.506Z,23.18
2022-08-25T19:54:38.971Z,23.14
2022-08-25T19:57:27.860Z,23.16
2022-08-25T19:59:57.961Z,23.11
2022-08-25T20:02:29.558Z,23.12
2022-08-25T20:05:00.627Z,23.17
2022-08-25T20:07:32.102Z,23.09
2022-08-25T20:10:01.401Z,23.05
2022-08-25T20:12:30.092Z,23.01
2022-08-25T20:14:58.872Z,23.01
2022-08-25T20:17:28.773Z,22.94
2022-08-25T20:20:01.068Z,22.92
2022-08-25T20:22:33.210Z,22.89
2022-08-25T20:25:16.098Z,22.89
2022-08-25T20:27:52.197Z,22.92
2022-08-25T20:30:26.742Z,22.86
2022-08-25T20:32:59.377Z,22.71
2022-08-25T20:35:28.803Z,22.59
2022-08-25T20:38:00.902Z,22.50
2022-08-25T20:40:30.665Z,22.45
2022-08-25T20:43:04.392Z,22.36
2022-08-25T20:45:32.360Z,22.32
2022-08-25T20:48:05.999Z,22.22
2022-08-25T20:50:37.362Z,22.24
2022-08-25T20:53:10.293Z,22.16
2022-08-25T20:55:43.676Z,22.13
2022-08-25T20:58:12.840Z,22.14
2022-08-25T21:00:44.788Z,22.19
2022-08-25T21:03:14.751Z,22.14
2022-08-25T21:05:43.752Z,22.10
2022-08-25T21:08:16.031Z,22.02
2022-08-25T21:10:46.257Z,22.01
2022-08-25T21:13:18.727Z,22.01
2022-08-25T21:15:48.542Z,22.02
2022-08-25T21:18:16.094Z,22.06
2022-08-25T21:20:44.472Z,22.08
2022-08-25T21:23:14.173Z,22.06
2022-08-25T21:25:42.867Z,22.03
2022-08-25T21:28:34.913Z,21.88
2022-08-25T21:31:07.310Z,21.78
2022-08-25T21:33:36.080Z,21.74
2022-08-25T21:36:09.961Z,21.72
2022-08-25T21:38:39.908Z,21.72
2022-08-25T21:41:40.033Z,21.78
2022-08-25T21:44:13.824Z,21.77
2022-08-25T21:46:53.915Z,21.81
2022-08-25T21:49:23.502Z,21.74
2022-08-25T21:52:00.914Z,21.73
2022-08-25T21:54:31.508Z,21.71
2022-08-25T21:57:05.862Z,21.67
